createdAt,value
2019-05-14T00:00:41.875Z,1031.94
2019-05-14T00:02:14.382Z,1031.87
2019-05-14T00:02:41.809Z,1031.90
2019-05-14T00:03:42.309Z,1031.99
2019-05-14T00:04:42.251Z,1032.01
2019-05-14T00:05:42.720Z,1031.97
2019-05-14T00:06:41.989Z,1031.97
2019-05-14T00:07:42.018Z,1031.95
2019-05-14T00:08:42.160Z,1032.00
2019-05-14T00:09:42.311Z,1032.01
2019-05-14T00:10:42.455Z,1032.00
2019-05-14T00:11:42.623Z,1032.02
2019-05-14T00:12:42.761Z,1031.97
2019-05-14T00:13:42.880Z,1031.98
2019-05-14T00:14:43.967Z,1031.98
2019-05-14T00:15:44.209Z,1031.96
2019-05-14T00:17:16.856Z,1031.96
2019-05-14T00:17:43.553Z,1031.99
2019-05-14T00:18:44.348Z,1032.05
2019-05-14T00:19:44.849Z,1032.08
2019-05-14T00:20:44.096Z,1032.08
2019-05-14T00:21:44.222Z,1032.13
2019-05-14T00:22:44.347Z,1032.08
2019-05-14T00:23:44.469Z,1032.14
2019-05-14T00:24:44.596Z,1032.11
2019-05-14T00:25:44.748Z,1032.12
2019-05-14T00:26:44.916Z,1032.14
2019-05-14T00:27:45.051Z,1032.19
2019-05-14T00:28:46.190Z,1032.20
2019-05-14T00:29:45.411Z,1032.17
2019-05-14T00:30:46.347Z,1032.20
2019-05-14T00:31:45.854Z,1032.21
2019-05-14T00:32:46.837Z,1032.18
2019-05-14T00:33:46.853Z,1032.20
2019-05-14T00:34:46.336Z,1032.18
2019-05-14T00:35:46.486Z,1032.25
2019-05-14T00:36:46.625Z,1032.22
2019-05-14T00:37:46.766Z,1032.15
2019-05-14T00:38:46.907Z,1032.21
2019-05-14T00:39:47.041Z,1032.21
2019-05-14T00:40:47.200Z,1032.18
2019-05-14T00:41:47.337Z,1032.17
2019-05-14T00:42:47.472Z,1032.15
2019-05-14T00:43:47.609Z,1032.15
2019-05-14T00:44:54.295Z,1032.19
2019-05-14T00:45:51.080Z,1032.19
2019-05-14T00:47:22.493Z,1032.21
2019-05-14T00:47:48.318Z,1032.22
2019-05-14T00:48:48.568Z,1032.20
2019-05-14T00:49:48.675Z,1032.21
2019-05-14T00:50:48.850Z,1032.19
2019-05-14T00:51:48.959Z,1032.24
2019-05-14T00:52:51.472Z,1032.18
2019-05-14T00:53:51.391Z,1032.29
2019-05-14T00:54:51.982Z,1032.27
2019-05-14T00:55:51.660Z,1032.28
2019-05-14T00:56:52.064Z,1032.28
2019-05-14T00:57:52.184Z,1032.33
2019-05-14T00:58:52.146Z,1032.32
2019-05-14T00:59:52.165Z,1032.33
2019-05-14T01:00:52.572Z,1032.31
2019-05-14T01:01:51.915Z,1032.26
2019-05-14T01:02:51.905Z,1032.32
2019-05-14T01:03:52.331Z,1032.29
2019-05-14T01:04:51.825Z,1032.32
2019-05-14T01:05:52.731Z,1032.24
2019-05-14T01:06:51.932Z,1032.29
2019-05-14T01:07:52.157Z,1032.30
2019-05-14T01:08:52.893Z,1032.27
2019-05-14T01:09:52.645Z,1032.34
2019-05-14T01:10:52.770Z,1032.24
2019-05-14T01:11:52.986Z,1032.28
2019-05-14T01:12:53.203Z,1032.23
2019-05-14T01:13:53.413Z,1032.22
2019-05-14T01:15:07.039Z,1032.23
2019-05-14T01:15:55.840Z,1032.34
2019-05-14T01:16:54.034Z,1032.28
2019-05-14T01:18:27.085Z,1032.24
2019-05-14T01:18:54.297Z,1032.27
2019-05-14T01:19:54.524Z,1032.25
2019-05-14T01:20:54.642Z,1032.23
2019-05-14T01:21:54.793Z,1032.28
2019-05-14T01:22:55.413Z,1032.26
2019-05-14T01:23:55.031Z,1032.31
2019-05-14T01:24:55.895Z,1032.27
2019-05-14T01:25:56.402Z,1032.28
2019-05-14T01:26:55.643Z,1032.32
2019-05-14T01:27:55.768Z,1032.27
2019-05-14T01:28:55.889Z,1032.24
2019-05-14T01:29:56.134Z,1032.30
2019-05-14T01:30:56.904Z,1032.28
2019-05-14T01:31:56.415Z,1032.24
2019-05-14T01:32:56.562Z,1032.29
2019-05-14T01:33:56.714Z,1032.25
2019-05-14T01:34:56.850Z,1032.27
2019-05-14T01:35:57.004Z,1032.23
2019-05-14T01:36:57.159Z,1032.23
2019-05-14T01:37:57.258Z,1032.21
2019-05-14T01:38:58.425Z,1032.14
2019-05-14T01:39:57.644Z,1032.18
2019-05-14T01:40:57.760Z,1032.14
2019-05-14T01:41:58.411Z,1032.16
2019-05-14T01:42:58.903Z,1032.17
2019-05-14T01:43:58.250Z,1032.19
2019-05-14T01:44:58.385Z,1032.09
2019-05-14T01:45:58.513Z,1032.17
2019-05-14T01:46:58.905Z,1032.20
2019-05-14T01:48:01.244Z,1032.20
2019-05-14T01:49:01.381Z,1032.18
2019-05-14T01:49:59.317Z,1032.20
2019-05-14T01:51:01.534Z,1032.19
2019-05-14T01:52:01.603Z,1032.15
2019-05-14T01:53:01.307Z,1032.17
2019-05-14T01:54:01.908Z,1032.15
2019-05-14T01:55:33.512Z,1032.18
2019-05-14T01:56:01.630Z,1032.23
2019-05-14T01:57:02.123Z,1032.24
2019-05-14T01:58:02.313Z,1032.27
2019-05-14T01:59:02.454Z,1032.18
2019-05-14T02:00:02.260Z,1032.23
2019-05-14T02:01:02.346Z,1032.20
2019-05-14T02:02:02.307Z,1032.16
2019-05-14T02:03:02.510Z,1032.18
2019-05-14T02:04:02.319Z,1032.20
2019-05-14T02:05:02.936Z,1032.18
2019-05-14T02:06:02.168Z,1032.13
2019-05-14T02:07:02.528Z,1032.12
2019-05-14T02:08:02.444Z,1032.08
2019-05-14T02:09:02.580Z,1032.06
2019-05-14T02:10:02.730Z,1032.07
2019-05-14T02:11:02.901Z,1031.99
2019-05-14T02:12:03.037Z,1032.13
2019-05-14T02:13:03.255Z,1031.98
2019-05-14T02:14:03.407Z,1032.05
2019-05-14T02:15:03.551Z,1032.00
2019-05-14T02:16:03.706Z,1031.99
2019-05-14T02:17:03.863Z,1031.94
2019-05-14T02:18:04.035Z,1031.93
2019-05-14T02:19:04.184Z,1031.92
2019-05-14T02:20:04.940Z,1031.89
2019-05-14T02:21:05.532Z,1031.91
2019-05-14T02:22:04.748Z,1031.91
2019-05-14T02:23:04.999Z,1031.92
2019-05-14T02:24:05.149Z,1031.89
2019-05-14T02:25:05.263Z,1031.82
2019-05-14T02:26:05.376Z,1031.87
2019-05-14T02:27:06.453Z,1031.81
2019-05-14T02:28:05.686Z,1031.90
2019-05-14T02:29:06.447Z,1031.86
2019-05-14T02:30:06.081Z,1031.88
2019-05-14T02:31:09.154Z,1031.85
2019-05-14T02:32:10.120Z,1031.84
2019-05-14T02:33:09.239Z,1031.85
2019-05-14T02:34:10.175Z,1031.85
2019-05-14T02:35:09.818Z,1031.86
2019-05-14T02:36:10.372Z,1031.81
2019-05-14T02:37:09.272Z,1031.85
2019-05-14T02:38:10.372Z,1031.79
2019-05-14T02:39:10.271Z,1031.73
2019-05-14T02:40:09.804Z,1031.77
2019-05-14T02:41:09.948Z,1031.74
2019-05-14T02:42:10.010Z,1031.71
2019-05-14T02:43:09.693Z,1031.77
2019-05-14T02:44:10.198Z,1031.75
2019-05-14T02:45:09.142Z,1031.77
2019-05-14T02:46:15.903Z,1031.82
2019-05-14T02:47:11.145Z,1031.79
2019-05-14T02:48:09.586Z,1031.75
2019-05-14T02:49:10.827Z,1031.85
2019-05-14T02:50:10.229Z,1031.94
2019-05-14T02:51:43.359Z,1031.91
2019-05-14T02:52:10.980Z,1031.84
2019-05-14T02:53:10.499Z,1031.85
2019-05-14T02:54:11.441Z,1031.90
2019-05-14T02:55:10.545Z,1031.83
2019-05-14T02:56:11.463Z,1031.84
2019-05-14T02:57:11.477Z,1031.82
2019-05-14T02:58:11.966Z,1031.84
2019-05-14T02:59:11.172Z,1031.82
2019-05-14T03:00:11.301Z,1031.81
2019-05-14T03:01:11.958Z,1031.83
2019-05-14T03:02:11.563Z,1031.82
2019-05-14T03:03:11.699Z,1031.79
2019-05-14T03:04:11.828Z,1031.78
2019-05-14T03:05:11.982Z,1031.77
2019-05-14T03:06:12.100Z,1031.73
2019-05-14T03:07:12.470Z,1031.76
2019-05-14T03:08:12.470Z,1031.75
2019-05-14T03:09:12.609Z,1031.76
2019-05-14T03:10:13.474Z,1031.81
2019-05-14T03:11:12.986Z,1031.69
2019-05-14T03:12:13.134Z,1031.86
2019-05-14T03:13:13.259Z,1031.72
2019-05-14T03:14:13.380Z,1031.73
2019-05-14T03:15:13.530Z,1031.66
2019-05-14T03:16:25.923Z,1031.70
2019-05-14T03:17:19.557Z,1031.79
2019-05-14T03:18:14.214Z,1031.80
2019-05-14T03:19:14.957Z,1031.79
2019-05-14T03:20:15.458Z,1031.71
2019-05-14T03:21:14.978Z,1031.69
2019-05-14T03:22:14.978Z,1031.65
2019-05-14T03:23:18.581Z,1031.61
2019-05-14T03:24:19.675Z,1031.62
2019-05-14T03:25:15.661Z,1031.63
2019-05-14T03:26:15.819Z,1031.68
2019-05-14T03:27:19.157Z,1031.67
2019-05-14T03:28:19.911Z,1031.69
2019-05-14T03:29:19.632Z,1031.72
2019-05-14T03:30:22.185Z,1031.72
2019-05-14T03:31:22.301Z,1031.74
2019-05-14T03:32:22.384Z,1031.73
2019-05-14T03:33:22.140Z,1031.68
2019-05-14T03:34:22.001Z,1031.70
2019-05-14T03:35:23.301Z,1031.71
2019-05-14T03:36:26.676Z,1031.75
2019-05-14T03:37:23.661Z,1031.75
2019-05-14T03:38:19.698Z,1031.75
2019-05-14T03:39:19.977Z,1031.75
2019-05-14T03:40:19.441Z,1031.72
2019-05-14T03:41:19.860Z,1031.74
2019-05-14T03:42:19.520Z,1031.66
2019-05-14T03:43:20.977Z,1031.64
2019-05-14T03:44:19.953Z,1031.66
2019-05-14T03:45:20.371Z,1031.69
2019-05-14T03:46:20.514Z,1031.60
2019-05-14T03:47:20.721Z,1031.61
2019-05-14T03:48:54.322Z,1031.60
2019-05-14T03:49:20.191Z,1031.58
2019-05-14T03:50:20.294Z,1031.54
2019-05-14T03:51:20.614Z,1031.59
2019-05-14T03:52:20.635Z,1031.53
2019-05-14T03:53:20.736Z,1031.52
2019-05-14T03:54:20.998Z,1031.49
2019-05-14T03:55:21.134Z,1031.52
2019-05-14T03:56:21.980Z,1031.48
2019-05-14T03:57:21.389Z,1031.46
2019-05-14T03:58:21.623Z,1031.45
2019-05-14T03:59:22.550Z,1031.35
2019-05-14T04:00:21.798Z,1031.34
2019-05-14T04:01:21.940Z,1031.36
2019-05-14T04:02:22.069Z,1031.26
2019-05-14T04:03:22.224Z,1031.24
2019-05-14T04:04:22.368Z,1031.26
2019-05-14T04:05:23.498Z,1031.27
2019-05-14T04:06:22.729Z,1031.21
2019-05-14T04:07:23.001Z,1031.21
2019-05-14T04:08:23.020Z,1031.12
2019-05-14T04:09:23.147Z,1031.12
2019-05-14T04:10:23.286Z,1031.18
2019-05-14T04:11:23.409Z,1031.10
2019-05-14T04:12:23.646Z,1031.14
2019-05-14T04:13:23.768Z,1031.07
2019-05-14T04:14:24.024Z,1031.06
2019-05-14T04:15:25.031Z,1031.07
2019-05-14T04:16:24.266Z,1031.10
2019-05-14T04:17:36.722Z,1031.07
2019-05-14T04:18:29.037Z,1031.13
2019-05-14T04:19:24.927Z,1031.12
2019-05-14T04:20:25.991Z,1031.12
2019-05-14T04:21:29.517Z,1031.16
2019-05-14T04:22:25.402Z,1031.10
2019-05-14T04:23:28.705Z,1031.15
2019-05-14T04:24:25.814Z,1031.17
2019-05-14T04:25:26.007Z,1031.23
2019-05-14T04:26:26.200Z,1031.22
2019-05-14T04:27:29.564Z,1031.19
2019-05-14T04:28:29.681Z,1031.29
2019-05-14T04:29:30.310Z,1031.26
2019-05-14T04:30:29.073Z,1031.24
2019-05-14T04:31:29.873Z,1031.24
2019-05-14T04:32:29.331Z,1031.23
2019-05-14T04:33:30.436Z,1031.23
2019-05-14T04:34:29.977Z,1031.22
2019-05-14T04:35:29.751Z,1031.26
2019-05-14T04:36:29.944Z,1031.25
2019-05-14T04:37:29.243Z,1031.25
2019-05-14T04:38:29.993Z,1031.23
2019-05-14T04:39:30.798Z,1031.19
2019-05-14T04:40:29.878Z,1031.13
2019-05-14T04:41:29.876Z,1031.21
2019-05-14T04:42:31.004Z,1031.21
2019-05-14T04:43:29.994Z,1031.17
2019-05-14T04:45:05.518Z,1031.23
2019-05-14T04:45:30.038Z,1031.24
2019-05-14T04:46:30.458Z,1031.24
2019-05-14T04:47:36.907Z,1031.22
2019-05-14T04:48:37.672Z,1031.21
2019-05-14T04:49:32.456Z,1031.20
2019-05-14T04:50:30.671Z,1031.23
2019-05-14T04:51:31.532Z,1031.12
2019-05-14T04:52:31.040Z,1031.18
2019-05-14T04:53:31.286Z,1031.05
2019-05-14T04:54:31.307Z,1031.16
2019-05-14T04:55:31.469Z,1031.04
2019-05-14T04:56:31.603Z,1031.05
2019-05-14T04:57:31.725Z,1031.03
2019-05-14T04:58:31.894Z,1031.01
2019-05-14T04:59:33.027Z,1030.97
2019-05-14T05:00:33.248Z,1031.04
2019-05-14T05:01:32.489Z,1031.00
2019-05-14T05:02:32.616Z,1031.04
2019-05-14T05:03:32.757Z,1031.08
2019-05-14T05:04:32.910Z,1030.95
2019-05-14T05:05:33.067Z,1030.94
2019-05-14T05:06:33.199Z,1030.91
2019-05-14T05:07:33.342Z,1030.90
2019-05-14T05:08:34.026Z,1030.78
2019-05-14T05:09:33.741Z,1030.88
2019-05-14T05:10:33.908Z,1030.90
2019-05-14T05:11:34.048Z,1030.93
2019-05-14T05:12:34.201Z,1030.88
2019-05-14T05:13:34.340Z,1030.87
2019-05-14T05:14:35.033Z,1030.82
2019-05-14T05:15:34.623Z,1030.84
2019-05-14T05:16:38.838Z,1030.77
2019-05-14T05:17:44.249Z,1030.78
2019-05-14T05:18:39.716Z,1030.80
2019-05-14T05:19:35.392Z,1030.76
2019-05-14T05:20:36.037Z,1030.77
2019-05-14T05:21:35.745Z,1030.72
2019-05-14T05:22:39.167Z,1030.75
2019-05-14T05:23:38.684Z,1030.75
2019-05-14T05:24:38.076Z,1030.77
2019-05-14T05:25:38.415Z,1030.75
2019-05-14T05:26:39.214Z,1030.70
2019-05-14T05:27:38.218Z,1030.66
2019-05-14T05:28:39.165Z,1030.76
2019-05-14T05:29:39.242Z,1030.71
2019-05-14T05:30:38.599Z,1030.76
2019-05-14T05:31:38.383Z,1030.81
2019-05-14T05:32:38.945Z,1030.72
2019-05-14T05:33:38.739Z,1030.79
2019-05-14T05:34:38.782Z,1030.79
2019-05-14T05:35:42.357Z,1030.80
2019-05-14T05:36:39.373Z,1030.79
2019-05-14T05:37:38.671Z,1030.74
2019-05-14T05:38:39.529Z,1030.76
2019-05-14T05:39:40.040Z,1030.72
2019-05-14T05:40:39.314Z,1030.74
2019-05-14T05:41:40.037Z,1030.73
2019-05-14T05:42:40.521Z,1030.72
2019-05-14T05:43:39.891Z,1030.70
2019-05-14T05:44:40.021Z,1030.70
2019-05-14T05:45:40.141Z,1030.72
2019-05-14T05:46:43.097Z,1030.71
2019-05-14T05:47:54.102Z,1030.63
2019-05-14T05:48:42.773Z,1030.63
2019-05-14T05:49:40.994Z,1030.64
2019-05-14T05:50:41.125Z,1030.64
2019-05-14T05:51:41.291Z,1030.62
2019-05-14T05:52:41.417Z,1030.59
2019-05-14T05:53:41.541Z,1030.65
2019-05-14T05:54:41.659Z,1030.56
2019-05-14T05:55:42.036Z,1030.61
2019-05-14T05:56:42.534Z,1030.56
2019-05-14T05:57:42.139Z,1030.47
2019-05-14T05:58:43.033Z,1030.53
2019-05-14T05:59:42.411Z,1030.53
2019-05-14T06:00:42.568Z,1030.48
2019-05-14T06:01:46.237Z,1030.44
2019-05-14T06:02:43.823Z,1030.36
2019-05-14T06:03:43.044Z,1030.38
2019-05-14T06:04:44.026Z,1030.30
2019-05-14T06:05:43.417Z,1030.25
2019-05-14T06:06:44.038Z,1030.20
2019-05-14T06:07:44.044Z,1030.12
2019-05-14T06:08:43.874Z,1030.10
2019-05-14T06:09:44.134Z,1030.07
2019-05-14T06:10:44.248Z,1029.92
2019-05-14T06:11:45.051Z,1029.81
2019-05-14T06:12:44.564Z,1029.85
2019-05-14T06:13:45.520Z,1029.73
2019-05-14T06:14:44.897Z,1029.48
2019-05-14T06:15:48.744Z,1029.46
2019-05-14T06:16:48.869Z,1029.34
2019-05-14T06:17:45.474Z,1029.24
2019-05-14T06:18:48.151Z,1029.17
2019-05-14T06:19:45.838Z,1029.16
2019-05-14T06:20:46.012Z,1029.16
2019-05-14T06:21:48.735Z,1029.10
2019-05-14T06:22:48.940Z,1029.05
2019-05-14T06:23:48.765Z,1028.95
2019-05-14T06:24:48.620Z,1028.86
2019-05-14T06:25:49.257Z,1028.75
2019-05-14T06:27:20.477Z,1028.56
2019-05-14T06:27:48.616Z,1028.56
2019-05-14T06:28:49.079Z,1028.49
2019-05-14T06:29:49.138Z,1028.57
2019-05-14T06:30:49.022Z,1028.53
2019-05-14T06:31:49.515Z,1028.54
2019-05-14T06:32:48.914Z,1028.56
2019-05-14T06:33:48.857Z,1028.42
2019-05-14T06:34:49.270Z,1028.47
2019-05-14T06:35:49.065Z,1028.36
2019-05-14T06:36:48.923Z,1028.24
2019-05-14T06:37:49.724Z,1028.13
2019-05-14T06:38:49.905Z,1028.09
2019-05-14T06:39:49.093Z,1028.10
2019-05-14T06:40:50.064Z,1028.14
2019-05-14T06:41:49.563Z,1027.96
2019-05-14T06:42:49.580Z,1027.94
2019-05-14T06:43:50.552Z,1027.92
2019-05-14T06:44:49.895Z,1027.89
2019-05-14T06:45:50.029Z,1027.86
2019-05-14T06:46:52.703Z,1027.74
2019-05-14T06:47:51.570Z,1027.76
2019-05-14T06:48:50.547Z,1027.72
2019-05-14T06:49:51.559Z,1027.78
2019-05-14T06:50:50.923Z,1027.81
2019-05-14T06:51:51.077Z,1027.97
2019-05-14T06:52:51.260Z,1027.99
2019-05-14T06:53:51.405Z,1027.89
2019-05-14T06:54:52.561Z,1027.82
2019-05-14T06:55:51.807Z,1027.76
2019-05-14T06:56:52.060Z,1027.75
2019-05-14T06:57:52.097Z,1027.59
2019-05-14T06:58:52.573Z,1027.58
2019-05-14T06:59:52.564Z,1027.43
2019-05-14T07:00:52.679Z,1027.34
2019-05-14T07:01:52.817Z,1027.19
2019-05-14T07:02:53.980Z,1027.07
2019-05-14T07:03:54.105Z,1027.03
2019-05-14T07:04:53.355Z,1027.03
2019-05-14T07:06:28.830Z,1026.93
2019-05-14T07:06:53.696Z,1026.73
2019-05-14T07:07:54.092Z,1026.40
2019-05-14T07:08:54.584Z,1026.04
2019-05-14T07:09:54.186Z,1025.84
2019-05-14T07:10:54.325Z,1025.81
2019-05-14T07:11:54.477Z,1025.48
2019-05-14T07:12:54.657Z,1025.34
2019-05-14T07:13:54.823Z,1025.05
2019-05-14T07:14:54.955Z,1024.82
2019-05-14T07:15:58.189Z,1024.84
2019-05-14T07:16:55.281Z,1025.14
2019-05-14T07:17:55.428Z,1025.47
2019-05-14T07:18:55.595Z,1025.59
2019-05-14T07:19:58.233Z,1025.66
2019-05-14T07:20:55.973Z,1025.86
2019-05-14T07:21:58.289Z,1026.01
2019-05-14T07:22:58.518Z,1025.95
2019-05-14T07:23:59.141Z,1025.99
2019-05-14T07:24:58.776Z,1025.95
2019-05-14T07:25:58.866Z,1025.75
2019-05-14T07:26:58.639Z,1025.64
2019-05-14T07:27:58.384Z,1025.51
2019-05-14T07:28:59.033Z,1025.53
2019-05-14T07:29:58.595Z,1025.59
2019-05-14T07:30:59.255Z,1025.41
2019-05-14T07:31:58.904Z,1025.03
2019-05-14T07:32:58.880Z,1024.23
2019-05-14T07:33:59.176Z,1023.55
2019-05-14T07:34:59.585Z,1023.21
2019-05-14T07:36:00.109Z,1023.28
2019-05-14T07:36:58.913Z,1023.53
2019-05-14T07:37:59.613Z,1023.32
2019-05-14T07:39:00.491Z,1023.36
2019-05-14T07:40:00.429Z,1023.64
2019-05-14T07:40:59.635Z,1023.86
2019-05-14T07:41:59.763Z,1024.05
2019-05-14T07:42:59.871Z,1024.16
2019-05-14T07:44:00.106Z,1024.23
2019-05-14T07:45:00.358Z,1024.13
2019-05-14T07:46:00.491Z,1023.97
2019-05-14T07:47:00.615Z,1023.81
2019-05-14T07:48:00.746Z,1023.61
2019-05-14T07:49:07.443Z,1023.43
2019-05-14T07:50:03.093Z,1023.20
2019-05-14T07:51:01.627Z,1022.75
2019-05-14T07:52:01.531Z,1022.76
2019-05-14T07:53:03.216Z,1022.86
2019-05-14T07:54:03.592Z,1022.84
2019-05-14T07:55:02.596Z,1022.71
2019-05-14T07:56:02.253Z,1022.11
2019-05-14T07:57:02.366Z,1021.84
2019-05-14T07:58:02.630Z,1022.32
2019-05-14T07:59:02.747Z,1022.46
2019-05-14T08:00:02.945Z,1022.53
2019-05-14T08:01:03.115Z,1022.70
2019-05-14T08:02:03.281Z,1022.99
2019-05-14T08:03:03.407Z,1023.17
2019-05-14T08:04:04.112Z,1023.26
2019-05-14T08:05:03.754Z,1023.40
2019-05-14T08:06:03.900Z,1023.56
2019-05-14T08:07:04.062Z,1023.65
2019-05-14T08:08:04.230Z,1023.80
2019-05-14T08:09:04.397Z,1023.82
2019-05-14T08:10:04.527Z,1023.82
2019-05-14T08:11:04.703Z,1023.89
2019-05-14T08:12:04.896Z,1023.57
2019-05-14T08:13:05.057Z,1023.47
2019-05-14T08:14:05.183Z,1023.47
2019-05-14T08:15:17.448Z,1023.73
2019-05-14T08:16:08.985Z,1023.90
2019-05-14T08:17:05.688Z,1024.07
2019-05-14T08:18:07.926Z,1024.22
2019-05-14T08:19:23.029Z,1024.36
2019-05-14T08:20:09.015Z,1024.45
2019-05-14T08:21:08.462Z,1024.62
2019-05-14T08:22:06.462Z,1024.71
2019-05-14T08:23:08.768Z,1024.80
2019-05-14T08:24:08.861Z,1024.88
2019-05-14T08:25:08.535Z,1025.04
2019-05-14T08:26:08.172Z,1025.05
2019-05-14T08:27:08.528Z,1025.10
2019-05-14T08:28:08.562Z,1025.16
2019-05-14T08:29:08.703Z,1025.16
2019-05-14T08:30:09.026Z,1025.29
2019-05-14T08:31:09.489Z,1025.34
2019-05-14T08:32:09.481Z,1025.46
2019-05-14T08:33:08.987Z,1025.58
2019-05-14T08:34:09.784Z,1025.54
2019-05-14T08:35:09.176Z,1025.53
2019-05-14T08:36:10.122Z,1025.61
2019-05-14T08:37:09.354Z,1025.64
2019-05-14T08:38:12.239Z,1025.63
2019-05-14T08:39:09.748Z,1025.59
2019-05-14T08:40:09.921Z,1025.59
2019-05-14T08:41:10.054Z,1025.53
2019-05-14T08:42:10.187Z,1025.55
2019-05-14T08:43:10.306Z,1025.52
2019-05-14T08:44:10.468Z,1025.51
2019-05-14T08:45:13.890Z,1025.45
2019-05-14T08:46:12.134Z,1025.37
2019-05-14T08:47:10.994Z,1025.36
2019-05-14T08:48:11.229Z,1025.42
2019-05-14T08:49:11.405Z,1025.40
2019-05-14T08:50:11.602Z,1025.42
2019-05-14T08:51:11.760Z,1025.37
2019-05-14T08:52:11.863Z,1025.39
2019-05-14T08:53:12.606Z,1025.38
2019-05-14T08:54:12.226Z,1025.45
2019-05-14T08:55:14.034Z,1025.58
2019-05-14T08:56:13.660Z,1025.58
2019-05-14T08:57:12.880Z,1025.55
2019-05-14T08:58:14.097Z,1025.64
2019-05-14T08:59:15.133Z,1025.59
2019-05-14T09:00:14.191Z,1025.58
2019-05-14T09:02:00.902Z,1025.64
2019-05-14T09:02:14.802Z,1025.51
2019-05-14T09:03:13.898Z,1025.43
2019-05-14T09:04:14.649Z,1025.38
2019-05-14T09:05:14.652Z,1025.25
2019-05-14T09:06:15.159Z,1025.18
2019-05-14T09:07:15.152Z,1025.12
2019-05-14T09:08:14.632Z,1025.20
2019-05-14T09:09:14.767Z,1025.10
2019-05-14T09:10:14.972Z,1025.10
2019-05-14T09:11:15.192Z,1024.98
2019-05-14T09:12:15.402Z,1024.79
2019-05-14T09:13:18.191Z,1024.77
2019-05-14T09:14:15.770Z,1024.76
2019-05-14T09:15:18.419Z,1024.73
2019-05-14T09:16:16.218Z,1024.63
2019-05-14T09:17:18.558Z,1024.70
2019-05-14T09:18:18.439Z,1024.73
2019-05-14T09:19:19.293Z,1024.82
2019-05-14T09:20:18.654Z,1024.93
2019-05-14T09:21:20.622Z,1025.01
2019-05-14T09:22:18.491Z,1024.74
2019-05-14T09:23:19.196Z,1024.68
2019-05-14T09:24:18.289Z,1024.77
2019-05-14T09:25:19.646Z,1024.80
2019-05-14T09:26:18.228Z,1024.89
2019-05-14T09:27:19.446Z,1024.99
2019-05-14T09:28:19.267Z,1024.98
2019-05-14T09:29:25.471Z,1025.09
2019-05-14T09:30:20.717Z,1025.07
2019-05-14T09:31:19.957Z,1025.13
2019-05-14T09:32:20.097Z,1025.09
2019-05-14T09:33:23.965Z,1025.03
2019-05-14T09:34:20.548Z,1024.97
2019-05-14T09:35:20.695Z,1024.93
2019-05-14T09:36:23.963Z,1024.96
2019-05-14T09:37:21.657Z,1024.96
2019-05-14T09:38:20.152Z,1024.90
2019-05-14T09:39:20.303Z,1025.01
2019-05-14T09:40:21.140Z,1025.01
2019-05-14T09:41:20.625Z,1025.04
2019-05-14T09:42:21.668Z,1025.08
2019-05-14T09:43:20.975Z,1025.11
2019-05-14T09:44:21.112Z,1025.12
2019-05-14T09:45:22.139Z,1024.97
2019-05-14T09:46:21.486Z,1024.89
2019-05-14T09:47:21.645Z,1024.73
2019-05-14T09:48:21.804Z,1024.69
2019-05-14T09:49:22.690Z,1024.62
2019-05-14T09:50:23.684Z,1024.63
2019-05-14T09:51:24.175Z,1024.59
2019-05-14T09:52:22.666Z,1024.55
2019-05-14T09:53:23.669Z,1024.43
2019-05-14T09:54:23.178Z,1024.36
2019-05-14T09:55:23.081Z,1024.40
2019-05-14T09:56:23.288Z,1024.21
2019-05-14T09:57:23.443Z,1024.12
2019-05-14T09:58:24.150Z,1024.14
2019-05-14T09:59:23.831Z,1024.06
2019-05-14T10:00:23.988Z,1024.17
2019-05-14T10:01:24.679Z,1024.17
2019-05-14T10:02:24.301Z,1024.23
2019-05-14T10:03:24.468Z,1024.24
2019-05-14T10:04:24.682Z,1024.23
2019-05-14T10:05:25.670Z,1024.30
2019-05-14T10:06:28.273Z,1024.14
2019-05-14T10:07:25.213Z,1024.03
2019-05-14T10:08:25.390Z,1023.99
2019-05-14T10:09:25.568Z,1023.97
2019-05-14T10:10:25.772Z,1024.09
2019-05-14T10:11:25.899Z,1024.09
2019-05-14T10:12:26.024Z,1024.09
2019-05-14T10:13:28.223Z,1024.14
2019-05-14T10:14:26.740Z,1024.28
2019-05-14T10:15:28.649Z,1024.17
2019-05-14T10:16:29.121Z,1024.27
2019-05-14T10:17:29.003Z,1024.27
2019-05-14T10:18:28.682Z,1024.44
2019-05-14T10:19:29.545Z,1024.52
2019-05-14T10:20:40.193Z,1024.60
2019-05-14T10:21:29.680Z,1024.54
2019-05-14T10:22:28.863Z,1024.57
2019-05-14T10:23:28.477Z,1024.47
2019-05-14T10:24:29.363Z,1024.45
2019-05-14T10:25:28.818Z,1024.57
2019-05-14T10:26:30.661Z,1024.61
2019-05-14T10:27:28.837Z,1024.70
2019-05-14T10:28:29.070Z,1024.70
2019-05-14T10:29:29.319Z,1024.72
2019-05-14T10:30:29.425Z,1024.89
2019-05-14T10:31:30.179Z,1024.79
2019-05-14T10:32:30.719Z,1024.79
2019-05-14T10:33:30.062Z,1024.64
2019-05-14T10:34:30.323Z,1024.72
2019-05-14T10:35:31.169Z,1024.55
2019-05-14T10:36:30.659Z,1024.49
2019-05-14T10:37:30.783Z,1024.44
2019-05-14T10:38:30.957Z,1024.48
2019-05-14T10:39:31.105Z,1024.50
2019-05-14T10:40:31.274Z,1024.58
2019-05-14T10:41:31.699Z,1024.43
2019-05-14T10:42:31.594Z,1024.27
2019-05-14T10:43:31.763Z,1024.21
2019-05-14T10:44:31.995Z,1024.19
2019-05-14T10:45:32.079Z,1024.30
2019-05-14T10:46:33.215Z,1024.20
2019-05-14T10:47:32.475Z,1024.30
2019-05-14T10:48:32.621Z,1024.24
2019-05-14T10:49:32.811Z,1024.33
2019-05-14T10:50:32.988Z,1024.31
2019-05-14T10:51:33.148Z,1024.33
2019-05-14T10:52:33.288Z,1024.26
2019-05-14T10:53:33.772Z,1024.18
2019-05-14T10:54:33.688Z,1024.11
2019-05-14T10:55:34.679Z,1023.90
2019-05-14T10:56:34.055Z,1023.82
2019-05-14T10:57:35.199Z,1023.88
2019-05-14T10:58:34.465Z,1023.91
2019-05-14T10:59:34.714Z,1023.75
2019-05-14T11:00:34.882Z,1023.62
2019-05-14T11:01:35.059Z,1023.55
2019-05-14T11:02:35.182Z,1023.57
2019-05-14T11:03:35.324Z,1023.50
2019-05-14T11:04:35.452Z,1023.45
2019-05-14T11:06:11.664Z,1023.40
2019-05-14T11:06:38.289Z,1023.55
2019-05-14T11:07:41.478Z,1023.72
2019-05-14T11:08:38.720Z,1023.87
2019-05-14T11:09:38.047Z,1023.90
2019-05-14T11:10:41.878Z,1023.93
2019-05-14T11:11:38.237Z,1023.89
2019-05-14T11:12:39.268Z,1023.97
2019-05-14T11:13:39.231Z,1024.03
2019-05-14T11:14:38.839Z,1024.02
2019-05-14T11:15:39.538Z,1023.94
2019-05-14T11:16:41.772Z,1023.90
2019-05-14T11:17:40.642Z,1023.80
2019-05-14T11:18:39.962Z,1023.87
2019-05-14T11:19:39.127Z,1023.86
2019-05-14T11:20:42.211Z,1023.76
2019-05-14T11:21:39.410Z,1023.86
2019-05-14T11:22:38.405Z,1023.97
2019-05-14T11:23:39.231Z,1024.01
2019-05-14T11:24:38.793Z,1024.07
2019-05-14T11:25:38.940Z,1024.08
2019-05-14T11:26:39.454Z,1023.95
2019-05-14T11:27:40.235Z,1023.81
2019-05-14T11:28:39.663Z,1023.69
2019-05-14T11:29:40.612Z,1023.61
2019-05-14T11:30:39.839Z,1023.53
2019-05-14T11:31:40.710Z,1023.58
2019-05-14T11:32:40.713Z,1023.68
2019-05-14T11:33:40.241Z,1023.81
2019-05-14T11:35:13.763Z,1023.87
2019-05-14T11:35:40.477Z,1024.03
2019-05-14T11:36:40.598Z,1024.11
2019-05-14T11:37:41.331Z,1024.04
2019-05-14T11:38:41.859Z,1024.01
2019-05-14T11:40:14.486Z,1023.93
2019-05-14T11:40:41.333Z,1023.88
2019-05-14T11:41:41.469Z,1023.78
2019-05-14T11:42:41.589Z,1023.68
2019-05-14T11:43:42.253Z,1023.61
2019-05-14T11:44:41.874Z,1023.58
2019-05-14T11:45:41.987Z,1023.57
2019-05-14T11:46:51.431Z,1023.56
2019-05-14T11:47:44.212Z,1023.48
2019-05-14T11:48:42.420Z,1023.32
2019-05-14T11:49:43.269Z,1023.33
2019-05-14T11:50:43.253Z,1023.15
2019-05-14T11:52:11.807Z,1023.10
2019-05-14T11:52:44.132Z,1023.05
2019-05-14T11:53:43.373Z,1023.23
2019-05-14T11:54:43.472Z,1023.33
2019-05-14T11:55:43.732Z,1023.23
2019-05-14T11:56:43.888Z,1023.30
2019-05-14T11:57:44.038Z,1023.33
2019-05-14T11:58:44.189Z,1023.24
2019-05-14T11:59:45.259Z,1023.03
2019-05-14T12:00:44.492Z,1023.00
2019-05-14T12:01:44.633Z,1022.85
2019-05-14T12:03:19.635Z,1022.95
2019-05-14T12:03:45.790Z,1022.98
2019-05-14T12:04:45.140Z,1023.17
2019-05-14T12:05:46.283Z,1023.19
2019-05-14T12:06:45.510Z,1023.18
2019-05-14T12:07:45.637Z,1022.94